createdAt,value
2023-05-22T00:00:20.722Z,95602.31
2023-05-22T00:02:52.822Z,95600.13
2023-05-22T00:05:24.722Z,95594.22
2023-05-22T00:07:53.921Z,95587.56
2023-05-22T00:10:20.789Z,95610.66
2023-05-22T00:12:49.826Z,95597.50
2023-05-22T00:15:21.441Z,95592.94
2023-05-22T00:17:54.077Z,95600.88
2023-05-22T00:20:23.654Z,95596.34
2023-05-22T00:22:53.873Z,95598.25
2023-05-22T00:25:23.033Z,95595.19
2023-05-22T00:27:49.821Z,95592.28
2023-05-22T00:30:22.003Z,95593.78
2023-05-22T00:32:51.336Z,95590.94
2023-05-22T00:35:25.379Z,95597.38
2023-05-22T00:37:52.182Z,95583.56
2023-05-22T00:40:24.051Z,95590.00
2023-05-22T00:42:53.331Z,95597.09
2023-05-22T00:45:20.172Z,95594.19
2023-05-22T00:47:49.220Z,95585.53
2023-05-22T00:50:21.496Z,95595.81
2023-05-22T00:52:50.629Z,95588.44
2023-05-22T00:55:17.459Z,95597.06
2023-05-22T00:57:52.175Z,95586.19
2023-05-22T01:00:23.883Z,95586.16
2023-05-22T01:02:53.822Z,95594.78
2023-05-22T01:05:22.801Z,95583.75
2023-05-22T01:07:49.653Z,95590.88
2023-05-22T01:10:22.237Z,95592.81
2023-05-22T01:13:07.120Z,95600.00
2023-05-22T01:15:55.912Z,95600.66
2023-05-22T01:18:31.499Z,95597.50
2023-05-22T01:21:10.444Z,95598.94
2023-05-22T01:23:40.377Z,95610.50
2023-05-22T01:26:32.037Z,95598.81
2023-05-22T01:29:22.446Z,95603.91
2023-05-22T01:31:50.595Z,95609.47
2023-05-22T01:34:26.886Z,95613.03
2023-05-22T01:37:00.059Z,95614.34
2023-05-22T01:39:30.942Z,95620.03
2023-05-22T01:41:58.367Z,95615.63
2023-05-22T01:44:27.699Z,95611.16
2023-05-22T01:47:00.716Z,95624.91
2023-05-22T01:49:31.873Z,95620.41
2023-05-22T01:52:13.110Z,95621.78
2023-05-22T01:54:45.706Z,95622.31
2023-05-22T01:58:00.247Z,95630.16
2023-05-22T02:00:28.456Z,95619.09
2023-05-22T02:03:12.210Z,95631.41
2023-05-22T02:05:46.083Z,95616.91
2023-05-22T02:08:14.600Z,95629.97
2023-05-22T02:10:48.800Z,95624.78
2023-05-22T02:13:18.431Z,95622.63
2023-05-22T02:15:48.058Z,95629.06
2023-05-22T02:18:19.720Z,95636.97
2023-05-22T02:20:47.094Z,95632.50
2023-05-22T02:23:18.775Z,95638.97
2023-05-22T02:25:48.009Z,95625.72
2023-05-22T02:28:15.109Z,95627.97
2023-05-22T02:30:46.164Z,95628.59
2023-05-22T02:33:18.155Z,95614.66
2023-05-22T02:35:54.732Z,95630.63
2023-05-22T02:38:21.559Z,95626.34
2023-05-22T02:40:51.843Z,95624.72
2023-05-22T02:43:28.584Z,95625.31
2023-05-22T02:45:57.871Z,95637.53
2023-05-22T02:48:29.617Z,95636.75
2023-05-22T02:50:58.837Z,95610.69
2023-05-22T02:53:28.267Z,95620.56
2023-05-22T02:55:59.175Z,95638.72
2023-05-22T02:58:26.110Z,95626.28
2023-05-22T03:00:55.811Z,95631.41
2023-05-22T03:03:25.470Z,95627.03
2023-05-22T03:06:00.244Z,95623.25
2023-05-22T03:08:28.541Z,95629.69
2023-05-22T03:11:02.004Z,95623.09
2023-05-22T03:13:28.832Z,95633.06
2023-05-22T03:16:02.726Z,95637.28
2023-05-22T03:18:35.224Z,95634.75
2023-05-22T03:21:04.601Z,95634.00
2023-05-22T03:23:34.005Z,95635.44
2023-05-22T03:26:03.097Z,95632.53
2023-05-22T03:28:39.625Z,95636.97
2023-05-22T03:31:09.578Z,95639.72
2023-05-22T03:33:55.707Z,95646.13
2023-05-22T03:36:27.469Z,95648.38
2023-05-22T03:38:54.560Z,95651.16
2023-05-22T03:41:23.791Z,95639.56
2023-05-22T03:43:53.436Z,95651.09
2023-05-22T03:46:26.731Z,95653.78
2023-05-22T03:48:58.381Z,95647.41
2023-05-22T03:51:27.662Z,95652.44
2023-05-22T03:53:54.500Z,95640.91
2023-05-22T03:56:23.833Z,95645.78
2023-05-22T03:58:50.697Z,95642.19
2023-05-22T04:01:22.543Z,95650.06
2023-05-22T04:03:51.752Z,95642.75
2023-05-22T04:06:21.961Z,95660.19
2023-05-22T04:08:56.244Z,95648.50
2023-05-22T04:11:23.994Z,95659.47
2023-05-22T04:13:51.282Z,95663.91
2023-05-22T04:16:23.623Z,95671.06
2023-05-22T04:18:50.700Z,95652.31
2023-05-22T04:21:23.974Z,95650.13
2023-05-22T04:23:50.988Z,95671.22
2023-05-22T04:26:21.077Z,95661.97
2023-05-22T04:28:48.012Z,95666.25
2023-05-22T04:31:17.270Z,95665.59
2023-05-22T04:33:48.487Z,95668.59
2023-05-22T04:36:22.558Z,95668.63
2023-05-22T04:38:50.532Z,95669.31
2023-05-22T04:41:22.716Z,95668.00
2023-05-22T04:43:54.739Z,95663.00
2023-05-22T04:46:23.918Z,95656.41
2023-05-22T04:48:53.025Z,95666.00
2023-05-22T04:51:23.142Z,95667.63
2023-05-22T04:53:52.215Z,95672.06
2023-05-22T04:56:35.237Z,95669.94
2023-05-22T04:59:09.584Z,95661.97
2023-05-22T05:01:39.043Z,95662.88
2023-05-22T05:04:08.321Z,95662.16
2023-05-22T05:06:36.006Z,95673.22
2023-05-22T05:09:08.512Z,95660.34
2023-05-22T05:11:37.555Z,95672.84
2023-05-22T05:14:09.173Z,95667.09
2023-05-22T05:16:36.299Z,95668.00
2023-05-22T05:19:04.187Z,95663.06
2023-05-22T05:21:36.121Z,95673.38
2023-05-22T05:24:06.566Z,95677.13
2023-05-22T05:26:36.368Z,95679.41
2023-05-22T05:29:08.190Z,95682.28
2023-05-22T05:31:42.994Z,95693.38
2023-05-22T05:34:34.292Z,95676.13
2023-05-22T05:37:05.838Z,95674.09
2023-05-22T05:39:36.367Z,95682.91
2023-05-22T05:42:05.869Z,95685.97
2023-05-22T05:44:35.271Z,95685.19
2023-05-22T05:47:12.521Z,95681.81
2023-05-22T05:49:40.162Z,95676.88
2023-05-22T05:52:08.267Z,95700.19
2023-05-22T05:54:38.893Z,95693.94
2023-05-22T05:57:14.734Z,95692.63
2023-05-22T05:59:43.808Z,95670.16
2023-05-22T06:02:29.461Z,95676.97
2023-05-22T06:04:59.223Z,95685.06
2023-05-22T06:07:30.447Z,95677.31
2023-05-22T06:10:00.400Z,95678.09
2023-05-22T06:12:41.452Z,95689.19
2023-05-22T06:15:09.358Z,95690.88
2023-05-22T06:17:37.705Z,95685.19
2023-05-22T06:20:09.158Z,95681.75
2023-05-22T06:22:39.840Z,95685.69
2023-05-22T06:25:12.754Z,95679.28
2023-05-22T06:27:39.630Z,95677.16
2023-05-22T06:30:10.034Z,95664.22
2023-05-22T06:32:41.825Z,95681.09
2023-05-22T06:35:12.053Z,95684.16
2023-05-22T06:37:45.240Z,95682.69
2023-05-22T06:40:15.041Z,95692.41
2023-05-22T06:42:53.402Z,95695.47
2023-05-22T06:45:31.667Z,95689.81
2023-05-22T06:48:21.498Z,95690.75
2023-05-22T06:51:04.460Z,95693.84
2023-05-22T06:53:34.082Z,95694.63
2023-05-22T06:56:08.158Z,95691.13
2023-05-22T06:59:01.912Z,95687.63
2023-05-22T07:02:03.386Z,95695.00
2023-05-22T07:04:45.294Z,95690.78
2023-05-22T07:07:22.498Z,95701.72
2023-05-22T07:09:57.494Z,95696.00
2023-05-22T07:12:32.794Z,95699.72
2023-05-22T07:15:02.040Z,95696.97
2023-05-22T07:17:31.994Z,95702.88
2023-05-22T07:20:02.048Z,95700.78
2023-05-22T07:22:31.075Z,95702.97
2023-05-22T07:25:00.257Z,95699.56
2023-05-22T07:27:34.471Z,95700.34
2023-05-22T07:30:02.635Z,95704.78
2023-05-22T07:32:35.039Z,95699.03
2023-05-22T07:35:05.020Z,95702.06
2023-05-22T07:37:36.169Z,95708.59
2023-05-22T07:40:05.478Z,95699.97
2023-05-22T07:42:38.455Z,95702.25
2023-05-22T07:45:11.949Z,95700.84
2023-05-22T07:47:41.618Z,95698.00
2023-05-22T07:50:09.284Z,95697.38
2023-05-22T07:52:44.294Z,95706.78
2023-05-22T07:55:14.208Z,95703.28
2023-05-22T07:57:44.654Z,95706.88
2023-05-22T08:00:23.680Z,95713.50
2023-05-22T08:02:57.746Z,95705.59
2023-05-22T08:05:29.588Z,95707.78
2023-05-22T08:07:59.030Z,95706.38
2023-05-22T08:10:28.035Z,95712.25
2023-05-22T08:13:06.230Z,95712.28
2023-05-22T08:15:38.035Z,95711.59
2023-05-22T08:18:04.870Z,95710.22
2023-05-22T08:20:34.640Z,95716.03
2023-05-22T08:23:04.105Z,95697.19
2023-05-22T08:25:38.100Z,95700.19
2023-05-22T08:28:09.796Z,95702.44
2023-05-22T08:30:39.362Z,95698.84
2023-05-22T08:33:08.477Z,95706.09
2023-05-22T08:35:35.454Z,95696.75
2023-05-22T08:38:05.009Z,95696.09
2023-05-22T08:40:42.565Z,95692.50
2023-05-22T08:43:14.004Z,95675.91
2023-05-22T08:45:42.792Z,95685.34
2023-05-22T08:48:16.710Z,95689.00
2023-05-22T08:50:44.705Z,95676.72
2023-05-22T08:53:18.635Z,95683.28
2023-05-22T08:55:45.935Z,95684.03
2023-05-22T08:58:18.858Z,95679.00
2023-05-22T09:00:48.497Z,95683.41
2023-05-22T09:03:21.833Z,95682.72
2023-05-22T09:05:49.634Z,95680.56
2023-05-22T09:08:20.296Z,95682.75
2023-05-22T09:10:47.689Z,95687.13
2023-05-22T09:13:24.751Z,95681.38
2023-05-22T09:15:59.178Z,95688.63
2023-05-22T09:18:32.252Z,95677.03
2023-05-22T09:20:59.737Z,95687.94
2023-05-22T09:23:32.456Z,95691.63
2023-05-22T09:26:01.055Z,95680.78
2023-05-22T09:28:34.550Z,95682.22
2023-05-22T09:31:07.354Z,95690.97
2023-05-22T09:33:41.468Z,95694.59
2023-05-22T09:36:13.710Z,95677.94
2023-05-22T09:38:45.329Z,95688.09
2023-05-22T09:41:20.605Z,95689.56
2023-05-22T09:43:54.754Z,95688.13
2023-05-22T09:46:22.238Z,95685.97
2023-05-22T09:48:59.558Z,95685.97
2023-05-22T09:51:29.267Z,95686.72
2023-05-22T09:54:03.921Z,95685.25
2023-05-22T09:56:39.606Z,95679.50
2023-05-22T09:59:10.286Z,95687.47
2023-05-22T10:01:40.894Z,95683.84
2023-05-22T10:04:15.640Z,95684.56
2023-05-22T10:06:46.962Z,95688.19
2023-05-22T10:09:20.567Z,95675.84
2023-05-22T10:11:53.624Z,95683.81
2023-05-22T10:14:24.067Z,95670.75
2023-05-22T10:16:53.715Z,95681.63
2023-05-22T10:19:27.462Z,95691.78
2023-05-22T10:21:57.312Z,95688.16
2023-05-22T10:24:26.917Z,95680.88
2023-05-22T10:26:56.264Z,95681.59
2023-05-22T10:29:36.796Z,95683.78
2023-05-22T10:32:19.823Z,95683.75
2023-05-22T10:35:11.812Z,95676.47
2023-05-22T10:37:49.754Z,95677.94
2023-05-22T10:40:32.598Z,95676.47
2023-05-22T10:43:04.402Z,95681.53
2023-05-22T10:45:36.873Z,95679.31
2023-05-22T10:48:17.464Z,95663.31
2023-05-22T10:50:54.646Z,95673.44
2023-05-22T10:53:25.016Z,95673.44
2023-05-22T10:56:02.764Z,95671.94
2023-05-22T10:58:39.143Z,95671.19
2023-05-22T11:01:13.029Z,95667.50
2023-05-22T11:03:57.588Z,95668.25
2023-05-22T11:06:43.023Z,95661.69
2023-05-22T11:09:31.543Z,95664.53
2023-05-22T11:12:16.918Z,95664.50
2023-05-22T11:14:50.176Z,95668.81
2023-05-22T11:17:20.642Z,95660.03
2023-05-22T11:20:16.258Z,95662.19
2023-05-22T11:22:50.593Z,95670.91
2023-05-22T11:25:22.732Z,95662.13
2023-05-22T11:27:53.215Z,95656.97
2023-05-22T11:30:20.970Z,95660.56
2023-05-22T11:32:52.982Z,95656.16
2023-05-22T11:35:24.968Z,95659.03
2023-05-22T11:37:53.257Z,95656.09
2023-05-22T11:40:27.188Z,95650.25
2023-05-22T11:42:54.503Z,95658.94
2023-05-22T11:45:29.885Z,95648.00
2023-05-22T11:47:57.186Z,95645.75
2023-05-22T11:50:40.306Z,95639.09
2023-05-22T11:53:11.229Z,95625.19
2023-05-22T11:55:46.160Z,95636.75
2023-05-22T11:58:15.496Z,95631.59
2023-05-22T12:00:44.894Z,95632.22
2023-05-22T12:03:19.254Z,95621.97
2023-05-22T12:05:51.392Z,95624.84
2023-05-22T12:08:18.621Z,95622.59
2023-05-22T12:10:53.158Z,95628.34
2023-05-22T12:13:30.217Z,95621.00
2023-05-22T12:16:03.216Z,95623.88
2023-05-22T12:18:38.526Z,95625.97
2023-05-22T12:23:50.429Z,95606.22
2023-05-22T12:29:09.205Z,95608.19
2023-05-22T12:31:40.608Z,95605.91
2023-05-22T12:34:10.612Z,95622.63
2023-05-22T12:36:44.265Z,95615.97
2023-05-22T12:39:21.458Z,95608.69
2023-05-22T12:41:57.569Z,95605.03
2023-05-22T12:44:26.991Z,95608.59
2023-05-22T12:46:56.331Z,95608.56
2023-05-22T12:49:23.134Z,95603.44
2023-05-22T12:51:57.116Z,95609.28
2023-05-22T12:54:29.220Z,95608.47
2023-05-22T12:57:17.910Z,95604.78
2023-05-22T12:59:53.316Z,95603.28
2023-05-22T13:02:20.283Z,95597.41
2023-05-22T13:04:51.969Z,95595.19
2023-05-22T13:07:23.853Z,95596.63
2023-05-22T13:09:50.793Z,95581.25
2023-05-22T13:12:20.041Z,95587.03
2023-05-22T13:14:49.354Z,95582.59
2023-05-22T13:17:18.547Z,95581.13
2023-05-22T13:19:45.343Z,95570.16
2023-05-22T13:22:20.540Z,95575.94
2023-05-22T13:24:52.081Z,95581.75
2023-05-22T13:27:21.295Z,95572.22
2023-05-22T13:29:48.133Z,95570.06
2023-05-22T13:32:19.761Z,95575.81
2023-05-22T13:34:51.218Z,95571.41
2023-05-22T13:37:18.890Z,95560.44
2023-05-22T13:39:48.137Z,95569.13
2023-05-22T13:42:20.153Z,95560.34
2023-05-22T13:44:54.383Z,95569.75
2023-05-22T13:47:24.002Z,95562.47
2023-05-22T13:49:53.148Z,95563.97
2023-05-22T13:52:22.588Z,95566.16
2023-05-22T13:54:51.738Z,95563.94
2023-05-22T13:57:20.932Z,95561.06
2023-05-22T13:59:54.467Z,95556.66
2023-05-22T14:02:28.937Z,95555.88
2023-05-22T14:04:55.849Z,95559.50
2023-05-22T14:07:24.902Z,95557.28
2023-05-22T14:09:54.232Z,95553.56
2023-05-22T14:12:25.865Z,95554.31
2023-05-22T14:14:59.535Z,95547.06
2023-05-22T14:17:29.061Z,95552.91
2023-05-22T14:19:55.923Z,95542.69
2023-05-22T14:22:25.112Z,95542.69
2023-05-22T14:24:59.080Z,95539.75
2023-05-22T14:27:26.395Z,95541.94
2023-05-22T14:30:00.001Z,95530.97
2023-05-22T14:32:29.568Z,95536.16
2023-05-22T14:34:58.706Z,95534.06
2023-05-22T14:37:27.838Z,95553.66
2023-05-22T14:39:59.181Z,95552.22
2023-05-22T14:42:28.319Z,95548.59
2023-05-22T14:44:59.788Z,95548.59
2023-05-22T14:47:26.792Z,95547.91
2023-05-22T14:50:10.215Z,95556.66
2023-05-22T14:52:45.137Z,95564.75
2023-05-22T14:55:19.431Z,95573.56
2023-05-22T14:57:53.268Z,95572.84
2023-05-22T15:00:25.593Z,95559.00
2023-05-22T15:03:02.976Z,95569.97
2023-05-22T15:05:37.186Z,95555.47
2023-05-22T15:08:08.980Z,95561.97
2023-05-22T15:10:36.781Z,95573.00
2023-05-22T15:13:11.977Z,95572.28
2023-05-22T15:15:41.666Z,95570.91
2023-05-22T15:18:19.992Z,95563.66
2023-05-22T15:20:49.235Z,95555.72
2023-05-22T15:23:25.309Z,95560.78
2023-05-22T15:25:54.722Z,95568.84
2023-05-22T15:28:24.607Z,95566.63
2023-05-22T15:30:51.488Z,95568.09
2023-05-22T15:33:21.864Z,95566.69
2023-05-22T15:35:48.721Z,95564.50
2023-05-22T15:38:20.484Z,95559.44
2023-05-22T15:40:52.085Z,95566.06
2023-05-22T15:43:22.984Z,95572.06
2023-05-22T15:45:50.721Z,95577.94
2023-05-22T15:48:19.863Z,95561.28
2023-05-22T15:50:49.036Z,95552.66
2023-05-22T15:53:19.006Z,95560.72
2023-05-22T15:55:48.422Z,95553.50
2023-05-22T15:58:18.241Z,95555.72
2023-05-22T16:00:47.478Z,95559.50
2023-05-22T16:03:15.483Z,95555.91
2023-05-22T16:05:47.158Z,95560.28
2023-05-22T16:08:20.874Z,95555.22
2023-05-22T16:10:50.206Z,95537.84
2023-05-22T16:13:22.002Z,95552.44
2023-05-22T16:15:48.876Z,95551.72
2023-05-22T16:18:24.089Z,95542.25
2023-05-22T16:20:55.494Z,95545.16
2023-05-22T16:23:24.799Z,95540.13
2023-05-22T16:25:58.682Z,95545.16
2023-05-22T16:28:25.601Z,95548.06
2023-05-22T16:30:54.930Z,95540.81
2023-05-22T16:33:21.853Z,95547.38
2023-05-22T16:35:51.252Z,95549.56
2023-05-22T16:38:20.421Z,95542.25
2023-05-22T16:40:49.747Z,95532.81
2023-05-22T16:43:21.674Z,95542.22
2023-05-22T16:45:51.330Z,95550.22
2023-05-22T16:48:23.501Z,95545.91
2023-05-22T16:50:50.372Z,95549.56
2023-05-22T16:53:19.914Z,95550.28
2023-05-22T16:55:49.046Z,95540.09
2023-05-22T16:58:15.919Z,95538.63
2023-05-22T17:00:47.841Z,95536.41
2023-05-22T17:03:19.907Z,95530.59
2023-05-22T17:05:54.269Z,95543.06
2023-05-22T17:08:23.542Z,95537.22
2023-05-22T17:10:57.694Z,95545.25
2023-05-22T17:13:29.662Z,95540.91
2023-05-22T17:15:56.695Z,95536.59
2023-05-22T17:18:25.943Z,95534.38
2023-05-22T17:20:57.974Z,95529.97
2023-05-22T17:23:24.800Z,95527.84
2023-05-22T17:25:51.728Z,95532.22
2023-05-22T17:28:18.672Z,95532.94
2023-05-22T17:30:48.416Z,95522.06
2023-05-22T17:33:15.418Z,95530.84
2023-05-22T17:35:44.688Z,95527.88
2023-05-22T17:38:16.223Z,95528.63
2023-05-22T17:40:46.351Z,95529.38
2023-05-22T17:43:19.131Z,95540.31
2023-05-22T17:45:54.651Z,95541.06
2023-05-22T17:48:27.348Z,95547.69
2023-05-22T17:50:56.899Z,95544.06
2023-05-22T17:53:23.750Z,95543.34
2023-05-22T17:55:55.586Z,95547.78
2023-05-22T17:58:30.291Z,95541.25
2023-05-22T18:00:57.217Z,95539.09
2023-05-22T18:03:24.143Z,95544.94
2023-05-22T18:05:51.496Z,95532.56
2023-05-22T18:08:21.842Z,95545.69
2023-05-22T18:10:55.923Z,95547.19
2023-05-22T18:13:22.938Z,95549.44
2023-05-22T18:15:52.092Z,95540.69
2023-05-22T18:18:22.683Z,95545.13
2023-05-22T18:20:57.323Z,95544.38
2023-05-22T18:23:31.371Z,95562.63
2023-05-22T18:26:03.676Z,95559.03
2023-05-22T18:28:35.955Z,95554.69
2023-05-22T18:31:02.839Z,95555.44
2023-05-22T18:33:29.711Z,95568.59
2023-05-22T18:35:57.464Z,95556.28
2023-05-22T18:38:34.187Z,95559.97
2023-05-22T18:41:03.578Z,95565.78
2023-05-22T18:43:33.096Z,95573.06
2023-05-22T18:45:59.982Z,95570.97
2023-05-22T18:48:31.057Z,95572.47
2023-05-22T18:51:05.463Z,95584.91
2023-05-22T18:53:37.319Z,95587.88
2023-05-22T18:56:06.766Z,95585.69
2023-05-22T18:58:41.532Z,95577.72
2023-05-22T19:01:08.648Z,95590.13
2023-05-22T19:03:40.688Z,95591.63
2023-05-22T19:06:09.864Z,95601.16
2023-05-22T19:08:38.990Z,95594.69
2023-05-22T19:11:08.463Z,95604.88
2023-05-22T19:13:41.439Z,95612.16
2023-05-22T19:16:13.402Z,95606.41
2023-05-22T19:18:40.391Z,95609.28
2023-05-22T19:21:11.919Z,95610.09
2023-05-22T19:23:43.606Z,95615.19
2023-05-22T19:26:10.498Z,95615.22
2023-05-22T19:28:42.000Z,95608.72
2023-05-22T19:31:13.526Z,95618.91
2023-05-22T19:33:42.757Z,95623.31
2023-05-22T19:36:09.642Z,95615.34
2023-05-22T19:38:43.307Z,95619.00
2023-05-22T19:41:13.207Z,95624.13
2023-05-22T19:43:43.794Z,95629.94
2023-05-22T19:46:11.011Z,95634.34
2023-05-22T19:48:38.108Z,95641.63
2023-05-22T19:51:08.865Z,95635.13
2023-05-22T19:53:37.670Z,95654.00
2023-05-22T19:56:07.088Z,95657.66
2023-05-22T19:58:34.182Z,95659.84
2023-05-22T20:01:03.534Z,95647.53
2023-05-22T20:03:35.733Z,95660.59
2023-05-22T20:06:03.222Z,95659.13
2023-05-22T20:08:32.244Z,95665.69
2023-05-22T20:10:59.114Z,95650.41
2023-05-22T20:13:30.871Z,95659.88
2023-05-22T20:16:03.647Z,95647.53
2023-05-22T20:18:35.910Z,95659.13
2023-05-22T20:21:08.251Z,95662.03
2023-05-22T20:23:44.822Z,95655.53
2023-05-22T20:26:16.285Z,95657.69
2023-05-22T20:28:51.025Z,95659.16
2023-05-22T20:31:22.570Z,95671.50
2023-05-22T20:33:59.269Z,95665.69
2023-05-22T20:36:28.486Z,95671.47
2023-05-22T20:39:00.108Z,95664.22
2023-05-22T20:41:31.987Z,95670.03
2023-05-22T20:44:03.886Z,95670.03
2023-05-22T20:46:35.650Z,95678.75
2023-05-22T20:49:09.499Z,95672.22
2023-05-22T20:51:36.900Z,95671.47
2023-05-22T20:54:06.438Z,95665.66
2023-05-22T20:56:33.324Z,95677.25
2023-05-22T20:59:02.536Z,95675.06
2023-05-22T21:01:32.633Z,95670.72
2023-05-22T21:04:04.052Z,95675.06
2023-05-22T21:06:31.806Z,95669.25
2023-05-22T21:09:01.841Z,95667.81
2023-05-22T21:11:30.994Z,95673.59
2023-05-22T21:14:02.485Z,95672.16
2023-05-22T21:16:29.333Z,95670.69
2023-05-22T21:19:01.273Z,95675.03
2023-05-22T21:21:28.234Z,95664.13
2023-05-22T21:23:57.275Z,95670.66
2023-05-22T21:26:26.558Z,95669.22
2023-05-22T21:29:00.905Z,95666.28
2023-05-22T21:31:28.060Z,95669.91
2023-05-22T21:34:04.658Z,95654.66
2023-05-22T21:36:34.868Z,95658.28
2023-05-22T21:39:02.700Z,95666.97
2023-05-22T21:41:31.965Z,95667.63
2023-05-22T21:44:01.323Z,95676.28
2023-05-22T21:46:30.800Z,95668.31
2023-05-22T21:49:03.223Z,95668.25
2023-05-22T21:51:32.807Z,95678.41
2023-05-22T21:54:02.093Z,95675.47
2023-05-22T21:56:35.983Z,95668.22
2023-05-22T21:59:05.377Z,95662.41
2023-05-22T22:01:37.094Z,95666.03
2023-05-22T22:04:09.029Z,95669.63
2023-05-22T22:06:39.438Z,95674.63
2023-05-22T22:09:11.076Z,95668.09
2023-05-22T22:11:40.639Z,95669.53
2023-05-22T22:14:09.733Z,95665.19
2023-05-22T22:16:44.588Z,95668.06
2023-05-22T22:19:15.925Z,95662.25
2023-05-22T22:21:45.707Z,95669.47
2023-05-22T22:24:13.329Z,95662.91
2023-05-22T22:26:47.977Z,95658.56
2023-05-22T22:29:17.015Z,95658.53
2023-05-22T22:31:44.156Z,95666.44
2023-05-22T22:34:13.093Z,95677.28
2023-05-22T22:36:47.581Z,95666.34
2023-05-22T22:39:16.888Z,95672.16
2023-05-22T22:41:48.732Z,95673.59
2023-05-22T22:44:20.625Z,95688.03
2023-05-22T22:46:47.470Z,95675.69
2023-05-22T22:49:14.353Z,95679.25
2023-05-22T22:51:43.784Z,95672.69
2023-05-22T22:54:15.376Z,95669.06
2023-05-22T22:56:50.023Z,95676.28
2023-05-22T22:59:19.392Z,95682.78
2023-05-22T23:01:46.262Z,95682.78
2023-05-22T23:04:15.999Z,95690.03
2023-05-22T23:06:46.320Z,95681.31
2023-05-22T23:09:16.171Z,95692.91
2023-05-22T23:11:47.696Z,95689.28
2023-05-22T23:14:18.004Z,95686.41
2023-05-22T23:16:47.315Z,95690.78
2023-05-22T23:19:16.768Z,95692.94
2023-05-22T23:21:48.010Z,95694.38
2023-05-22T23:24:19.708Z,95690.06
2023-05-22T23:26:49.537Z,95688.59
2023-05-22T23:29:18.614Z,95695.13
2023-05-22T23:31:50.780Z,95691.50
2023-05-22T23:34:17.759Z,95690.75
2023-05-22T23:36:49.459Z,95688.59
2023-05-22T23:39:26.977Z,95689.31
2023-05-22T23:41:55.991Z,95688.53
2023-05-22T23:44:25.463Z,95702.31
2023-05-22T23:46:54.866Z,95684.88
2023-05-22T23:49:22.407Z,95702.94
2023-05-22T23:51:55.964Z,95696.41
2023-05-22T23:54:30.297Z,95700.03
2023-05-22T23:57:04.923Z,95707.88
2023-05-22T23:59:33.856Z,95703.59
